Time;durP1;ratioP1;P1;durP2;ratioP2;P2;SDS_P1;SDS_P2;PMS_P1;PMS_P2;Temp;Humidity;BMP_temperature;BMP_pressure;BME280_temperature;BME280_humidity;BME280_pressure;Samples;Min_cycle;Max_cycle;Signal;HPM_P1;HPM_P2
2024/01/18 00:02:25;;;;;;;;;14.20;12.80;;;;;-0.57;84.03;97473.09;5099929;28;8818;-58
2024/01/18 00:04:53;;;;;;;;;13.00;13.00;;;;;-0.56;83.94;97477.38;5101941;28;9729;-59
2024/01/18 00:07:22;;;;;;;;;15.80;15.00;;;;;-0.55;83.79;97481.69;5102066;28;8848;-57
2024/01/18 00:09:49;;;;;;;;;7.50;7.50;;;;;-0.54;83.92;97480.72;5104331;28;8890;-59
2024/01/18 00:12:17;;;;;;;;;15.80;15.60;;;;;-0.56;84.01;97483.44;5101255;28;8798;-58
2024/01/18 00:14:45;;;;;;;;;14.20;11.20;;;;;-0.54;83.74;97499.84;5100969;28;9472;-59
2024/01/18 00:17:13;;;;;;;;;8.80;7.40;;;;;-0.53;84.27;97503.28;5098876;28;9508;-58
2024/01/18 00:19:41;;;;;;;;;5.60;5.60;;;;;-0.55;84.51;97518.25;5100661;28;8850;-58
2024/01/18 00:22:09;;;;;;;;;15.60;13.80;;;;;-0.54;84.08;97522.53;5100446;28;8814;-59
2024/01/18 00:24:37;;;;;;;;;17.80;13.80;;;;;-0.52;84.56;97525.84;5100833;28;8806;-58
2024/01/18 00:27:06;;;;;;;;;6.20;6.20;;;;;-0.52;83.98;97518.03;5100726;28;9747;-60
2024/01/18 00:29:34;;;;;;;;;13.00;12.80;;;;;-0.51;83.46;97517.91;5100355;28;8826;-60
2024/01/18 00:32:01;;;;;;;;;12.20;11.20;;;;;-0.48;83.88;97522.09;5098506;28;8909;-58
2024/01/18 00:34:29;;;;;;;;;16.00;14.20;;;;;-0.48;83.87;97522.09;5100696;28;8940;-60
2024/01/18 00:36:56;;;;;;;;;15.20;12.40;;;;;-0.47;84.02;97518.53;5097269;28;8810;-59
2024/01/18 00:39:24;;;;;;;;;12.00;10.20;;;;;-0.45;84.29;97516.63;5097456;28;8848;-58
2024/01/18 00:41:52;;;;;;;;;16.00;15.60;;;;;-0.45;84.20;97532.28;5098482;28;8852;-60
2024/01/18 00:44:20;;;;;;;;;14.40;13.40;;;;;-0.43;83.58;97535.63;5098075;28;8833;-58
2024/01/18 00:46:48;;;;;;;;;15.20;9.60;;;;;-0.43;83.90;97533.00;5096437;28;8830;-60
2024/01/18 00:49:15;;;;;;;;;0.40;0.00;;;;;-0.42;84.06;97526.84;5098211;28;8802;-58
2024/01/18 00:51:43;;;;;;;;;17.20;13.80;;;;;-0.41;84.53;97531.09;5097741;28;8943;-61
2024/01/18 00:54:11;;;;;;;;;13.40;13.40;;;;;-0.40;83.70;97540.63;5097939;28;8806;-58
2024/01/18 00:56:39;;;;;;;;;14.20;12.80;;;;;-0.40;83.64;97531.00;5097822;28;8822;-60
2024/01/18 00:59:07;;;;;;;;;11.60;11.60;;;;;-0.39;83.99;97537.06;5097526;28;8806;-59
2024/01/18 01:01:34;;;;;;;;;9.80;9.80;;;;;-0.39;83.89;97539.69;5097658;28;8821;-60
2024/01/18 01:04:02;;;;;;;;;11.60;10.40;;;;;-0.40;83.95;97546.69;5096586;28;9684;-61
2024/01/18 01:06:31;;;;;;;;;12.00;12.00;;;;;-0.40;83.76;97561.53;5097944;28;8822;-57
2024/01/18 01:08:59;;;;;;;;;12.40;12.00;;;;;-0.41;84.12;97567.69;5098413;28;8903;-62
2024/01/18 01:11:26;;;;;;;;;9.80;9.60;;;;;-0.42;84.02;97568.66;5094944;28;8810;-58
2024/01/18 01:13:54;;;;;;;;;15.80;14.20;;;;;-0.42;83.44;97576.47;5097766;28;8806;-61
2024/01/18 01:16:22;;;;;;;;;6.60;5.80;;;;;-0.44;83.78;97575.78;5097398;28;8877;-58
2024/01/18 01:18:49;;;;;;;;;11.20;11.20;;;;;-0.45;83.72;97576.72;5096002;28;8829;-61
2024/01/18 01:21:17;;;;;;;;;9.00;9.00;;;;;-0.47;84.11;97586.47;5097570;28;8818;-60
2024/01/18 01:23:48;;;;;;;;;10.00;10.00;;;;;-0.47;84.14;97586.47;5097724;28;8826;-61
2024/01/18 01:26:17;;;;;;;;;15.20;13.40;;;;;-0.47;84.19;97583.84;5097590;28;9531;-60
2024/01/18 01:28:45;;;;;;;;;7.80;6.00;;;;;-0.47;84.08;97586.47;5097152;28;8933;-60
2024/01/18 01:31:12;;;;;;;;;9.20;8.00;;;;;-0.47;84.24;97584.66;5097057;28;8814;-57
2024/01/18 01:33:41;;;;;;;;;11.20;11.20;;;;;-0.45;83.94;97600.25;5095896;28;8898;-59
2024/01/18 01:36:09;;;;;;;;;11.60;11.00;;;;;-0.44;84.20;97614.97;5097314;28;8856;-59
2024/01/18 01:38:37;;;;;;;;;12.40;12.40;;;;;-0.43;84.02;97624.47;5097213;28;8810;-58
2024/01/18 01:41:05;;;;;;;;;9.00;7.00;;;;;-0.43;83.57;97624.47;5096326;28;8814;-58
2024/01/18 01:43:33;;;;;;;;;11.60;10.00;;;;;-0.42;83.71;97611.31;5096398;28;8895;-59
2024/01/18 01:46:00;;;;;;;;;6.00;6.00;;;;;-0.37;84.33;97592.66;5096344;28;8814;-59
2024/01/18 01:48:28;;;;;;;;;12.80;12.20;;;;;-0.35;84.09;97594.22;5093355;28;8822;-59
2024/01/18 01:50:56;;;;;;;;;10.40;10.00;;;;;-0.34;84.04;97595.03;5101353;28;8810;-58
2024/01/18 01:53:24;;;;;;;;;12.40;11.60;;;;;-0.33;84.03;97596.75;5096233;28;8834;-60
2024/01/18 01:55:52;;;;;;;;;5.20;4.80;;;;;-0.34;84.45;97606.34;5097138;28;8817;-61
2024/01/18 01:58:21;;;;;;;;;13.60;11.60;;;;;-0.34;83.63;97616.81;5096330;28;8818;-59
2024/01/18 02:00:48;;;;;;;;;9.40;8.60;;;;;-0.33;84.60;97618.47;5098490;28;8814;-61
2024/01/18 02:03:16;;;;;;;;;11.40;9.40;;;;;-0.32;83.95;97620.13;5093600;28;8814;-58
2024/01/18 02:05:44;;;;;;;;;15.40;14.20;;;;;-0.31;84.02;97615.75;5095462;28;8841;-60
2024/01/18 02:08:12;;;;;;;;;13.20;12.80;;;;;-0.31;84.19;97634.03;5096161;28;8812;-60
2024/01/18 02:10:39;;;;;;;;;12.20;11.20;;;;;-0.34;84.20;97629.03;5095923;28;8815;-58
2024/01/18 02:13:07;;;;;;;;;16.40;14.60;;;;;-0.36;83.64;97628.31;5096291;28;8953;-58
2024/01/18 02:15:35;;;;;;;;;1.40;1.00;;;;;-0.39;83.38;97623.31;5096704;28;8814;-61
2024/01/18 02:18:03;;;;;;;;;13.80;13.20;;;;;-0.41;84.27;97631.25;5093447;28;8850;-58
2024/01/18 02:20:30;;;;;;;;;11.80;11.80;;;;;-0.43;84.04;97634.94;5096186;28;8896;-60
2024/01/18 02:22:58;;;;;;;;;11.60;10.40;;;;;-0.45;84.09;97642.91;5096261;28;8810;-59
2024/01/18 02:25:27;;;;;;;;;9.40;9.40;;;;;-0.45;84.43;97647.28;5096016;28;8822;-58
2024/01/18 02:27:55;;;;;;;;;10.00;9.80;;;;;-0.46;84.02;97640.38;5095667;28;8838;-58
2024/01/18 02:30:23;;;;;;;;;6.60;4.00;;;;;-0.45;84.38;97645.53;5098075;28;8949;-58
2024/01/18 02:32:51;;;;;;;;;12.00;10.00;;;;;-0.45;83.81;97648.13;5093713;28;8814;-58
2024/01/18 02:35:19;;;;;;;;;13.40;12.40;;;;;-0.44;84.04;97648.94;5096374;28;8803;-58
2024/01/18 02:37:47;;;;;;;;;11.80;10.40;;;;;-0.44;83.86;97646.34;5096837;28;8857;-58
2024/01/18 02:40:15;;;;;;;;;9.20;9.20;;;;;-0.43;83.96;97648.00;5096352;28;8810;-58
2024/01/18 02:42:42;;;;;;;;;11.80;11.80;;;;;-0.42;84.20;97652.28;5096166;28;8830;-60
2024/01/18 02:45:10;;;;;;;;;9.00;9.00;;;;;-0.44;83.98;97655.03;5096221;28;8817;-59
2024/01/18 02:47:38;;;;;;;;;13.80;11.60;;;;;-0.43;84.16;97653.22;5096665;28;8830;-58
2024/01/18 02:50:05;;;;;;;;;5.20;5.20;;;;;-0.41;84.01;97648.72;5094164;28;8867;-60
2024/01/18 02:52:33;;;;;;;;;8.60;8.60;;;;;-0.39;84.21;97652.88;5094997;28;8814;-58
2024/01/18 02:55:01;;;;;;;;;14.00;13.20;;;;;-0.38;83.98;97653.72;5096167;28;8802;-59
2024/01/18 02:57:29;;;;;;;;;5.60;5.60;;;;;-0.36;84.14;97651.84;5096467;28;8799;-59
2024/01/18 02:59:57;;;;;;;;;9.00;7.40;;;;;-0.35;83.78;97651.72;5095007;28;8817;-58
2024/01/18 03:02:25;;;;;;;;;11.80;10.40;;;;;-0.34;83.54;97645.56;5093236;28;8810;-58
2024/01/18 03:04:52;;;;;;;;;14.40;12.00;;;;;-0.33;84.21;97647.22;5096207;28;8864;-59
2024/01/18 03:07:20;;;;;;;;;11.60;11.60;;;;;-0.32;84.24;97642.84;5095687;28;8810;-58
2024/01/18 03:09:48;;;;;;;;;12.80;11.80;;;;;-0.32;84.28;97640.22;5096374;28;8828;-61
2024/01/18 03:12:15;;;;;;;;;9.80;9.00;;;;;-0.33;84.01;97642.00;5096055;28;8833;-60
2024/01/18 03:14:43;;;;;;;;;6.00;5.60;;;;;-0.33;83.90;97639.38;5096078;28;8842;-59
2024/01/18 03:17:11;;;;;;;;;12.20;9.20;;;;;-0.32;83.24;97635.00;5095361;28;9543;-59
2024/01/18 03:19:38;;;;;;;;;11.20;9.40;;;;;-0.34;84.00;97637.72;5095128;28;8810;-58
2024/01/18 03:22:06;;;;;;;;;16.60;15.60;;;;;-0.35;84.01;97638.66;5095119;28;8810;-58
2024/01/18 03:24:34;;;;;;;;;12.60;9.40;;;;;-0.36;83.86;97646.59;5094967;28;8854;-58
2024/01/18 03:27:01;;;;;;;;;10.60;10.20;;;;;-0.41;84.01;97644.34;5095941;28;9528;-58
2024/01/18 03:29:29;;;;;;;;;10.80;10.40;;;;;-0.42;83.92;97647.03;5095210;28;8890;-59
2024/01/18 03:31:57;;;;;;;;;12.20;12.20;;;;;-0.43;84.03;97648.00;5094818;28;8814;-57
2024/01/18 03:34:24;;;;;;;;;13.60;12.40;;;;;-0.43;84.02;97645.38;5094945;28;8868;-59
2024/01/18 03:36:53;;;;;;;;;10.00;10.00;;;;;-0.44;84.34;97643.72;5094600;28;8810;-59
2024/01/18 03:39:20;;;;;;;;;10.20;9.60;;;;;-0.45;83.82;97642.06;5094683;28;8861;-59
2024/01/18 03:41:48;;;;;;;;;9.00;9.00;;;;;-0.48;83.80;97637.06;5094646;28;8957;-59
2024/01/18 03:44:16;;;;;;;;;17.00;16.60;;;;;-0.49;84.14;97646.66;5094742;28;8815;-58
2024/01/18 03:46:44;;;;;;;;;8.40;7.20;;;;;-0.48;84.17;97647.53;5094617;28;8869;-58
2024/01/18 03:49:11;;;;;;;;;11.40;7.80;;;;;-0.47;84.42;97646.56;5093707;28;8824;-60
2024/01/18 03:51:39;;;;;;;;;10.00;10.00;;;;;-0.48;83.59;97648.34;5094038;28;8895;-60
2024/01/18 03:54:07;;;;;;;;;9.00;9.00;;;;;-0.47;84.33;97651.78;5093575;28;8814;-59
2024/01/18 03:56:34;;;;;;;;;9.20;7.80;;;;;-0.45;84.04;97657.72;5094761;28;8929;-58
2024/01/18 03:59:02;;;;;;;;;8.60;6.80;;;;;-0.45;84.59;97649.91;5092831;28;8806;-59
2024/01/18 04:01:30;;;;;;;;;12.20;12.20;;;;;-0.45;83.98;97648.13;5095165;28;8817;-58
2024/01/18 04:04:01;;;;;;;;;7.80;7.20;;;;;-0.43;83.91;97650.59;5095462;28;8806;-60
2024/01/18 04:06:29;;;;;;;;;7.00;7.00;;;;;-0.43;84.32;97645.38;5095335;28;8932;-58
2024/01/18 04:08:57;;;;;;;;;15.20;14.60;;;;;-0.43;83.90;97640.16;5094174;28;8826;-60
2024/01/18 04:11:24;;;;;;;;;11.60;11.60;;;;;-0.45;83.52;97637.69;5095982;28;8902;-59
2024/01/18 04:13:52;;;;;;;;;11.20;10.00;;;;;-0.47;83.98;97633.50;5098390;28;8857;-58
2024/01/18 04:16:20;;;;;;;;;11.40;10.80;;;;;-0.48;83.57;97639.69;5098295;28;8834;-58
2024/01/18 04:18:47;;;;;;;;;16.00;15.40;;;;;-0.49;84.61;97640.59;5099064;28;8822;-57
2024/01/18 04:21:15;;;;;;;;;13.40;11.60;;;;;-0.49;84.31;97644.06;5098425;28;8826;-55
2024/01/18 04:23:43;;;;;;;;;12.00;10.40;;;;;-0.48;84.35;97663.19;5097777;28;8822;-56
2024/01/18 04:26:11;;;;;;;;;12.00;10.40;;;;;-0.48;84.08;97653.56;5098161;28;8822;-55
2024/01/18 04:28:38;;;;;;;;;13.00;12.00;;;;;-0.46;84.22;97656.88;5098052;28;8838;-56
2024/01/18 04:31:06;;;;;;;;;11.20;11.20;;;;;-0.45;84.23;97668.19;5097717;28;8838;-56
2024/01/18 04:33:34;;;;;;;;;14.60;14.60;;;;;-0.44;84.47;97670.69;5097726;28;8897;-55
2024/01/18 04:36:01;;;;;;;;;5.60;4.40;;;;;-0.42;83.95;97675.78;5099137;28;9516;-56
2024/01/18 04:38:29;;;;;;;;;13.60;9.80;;;;;-0.40;84.29;97687.00;5098289;28;8802;-59
2024/01/18 04:40:57;;;;;;;;;6.60;5.60;;;;;-0.41;84.10;97687.91;5098383;28;8826;-56
2024/01/18 04:43:25;;;;;;;;;12.40;10.40;;;;;-0.38;83.58;97687.72;5097544;28;8833;-56
2024/01/18 04:45:52;;;;;;;;;3.00;3.00;;;;;-0.38;83.92;97688.53;5097679;28;8833;-56
2024/01/18 04:48:20;;;;;;;;;9.60;9.40;;;;;-0.35;83.94;97692.69;5098227;28;8841;-58
2024/01/18 04:50:48;;;;;;;;;10.80;10.40;;;;;-0.34;83.67;97692.59;5098504;28;9584;-57
2024/01/18 04:53:16;;;;;;;;;20.80;19.40;;;;;-0.34;83.41;97700.44;5098319;28;8918;-56
2024/01/18 04:55:44;;;;;;;;;15.00;15.00;;;;;-0.32;84.24;97705.56;5098170;28;8836;-58
2024/01/18 04:58:11;;;;;;;;;12.00;10.40;;;;;-0.32;84.19;97709.00;5097272;28;8814;-56
2024/01/18 05:00:39;;;;;;;;;4.40;4.40;;;;;-0.32;84.09;97705.56;5096607;28;8846;-57
2024/01/18 05:03:08;;;;;;;;;5.60;4.80;;;;;-0.32;83.69;97710.81;5097240;28;8911;-56
2024/01/18 05:05:35;;;;;;;;;10.00;10.00;;;;;-0.33;84.07;97717.78;5097141;28;8839;-57
2024/01/18 05:08:03;;;;;;;;;17.40;12.60;;;;;-0.33;84.15;97716.97;5097326;28;8815;-59
2024/01/18 05:10:32;;;;;;;;;15.40;14.20;;;;;-0.34;84.14;97726.59;5096216;28;8827;-56
2024/01/18 05:12:59;;;;;;;;;13.40;11.40;;;;;-0.34;83.91;97734.44;5096737;28;9727;-58
2024/01/18 05:15:27;;;;;;;;;13.40;11.20;;;;;-0.34;84.20;97738.81;5096925;28;8839;-56
2024/01/18 05:17:55;;;;;;;;;10.00;9.80;;;;;-0.35;84.11;97742.38;5097209;28;8848;-57
2024/01/18 05:20:25;;;;;;;;;12.00;12.00;;;;;-0.36;83.86;97740.69;5096644;28;8830;-59
2024/01/18 05:22:53;;;;;;;;;10.40;10.00;;;;;-0.35;83.87;97732.75;5096532;28;8838;-59
2024/01/18 05:25:21;;;;;;;;;13.40;12.60;;;;;-0.34;84.13;97744.03;5096110;28;8818;-58
2024/01/18 05:27:49;;;;;;;;;14.40;13.00;;;;;-0.35;83.76;97740.59;5096988;28;8806;-58
2024/01/18 05:30:16;;;;;;;;;17.20;16.00;;;;;-0.34;84.26;97752.72;5096203;28;8849;-59
2024/01/18 05:32:45;;;;;;;;;11.40;11.20;;;;;-0.33;83.79;97746.53;5096298;28;8842;-57
2024/01/18 05:35:12;;;;;;;;;10.00;9.80;;;;;-0.33;83.52;97738.72;5096755;28;8818;-58
2024/01/18 05:37:40;;;;;;;;;14.80;12.80;;;;;-0.34;84.24;97744.88;5096688;28;8865;-56
2024/01/18 05:40:08;;;;;;;;;8.00;7.00;;;;;-0.33;84.25;97756.19;5096056;28;8841;-59
2024/01/18 05:42:36;;;;;;;;;9.40;9.40;;;;;-0.33;84.22;97761.41;5096270;28;8826;-59
2024/01/18 05:45:03;;;;;;;;;8.00;8.00;;;;;-0.33;83.37;97764.03;5097169;28;8830;-56
2024/01/18 05:47:31;;;;;;;;;12.60;11.60;;;;;-0.31;84.06;97767.38;5096443;28;8842;-60
2024/01/18 05:49:59;;;;;;;;;10.80;10.00;;;;;-0.32;84.19;97773.53;5096377;28;8903;-59
2024/01/18 05:52:29;;;;;;;;;14.60;13.80;;;;;-0.31;83.91;97780.44;5095014;28;9507;-59
2024/01/18 05:54:58;;;;;;;;;13.80;12.00;;;;;-0.31;84.41;97780.44;5094189;28;8833;-58
2024/01/18 05:57:26;;;;;;;;;10.00;9.20;;;;;-0.30;83.53;97779.47;5095821;28;8822;-58
2024/01/18 05:59:54;;;;;;;;;13.40;11.60;;;;;-0.31;84.61;97769.97;5095689;28;8895;-57
2024/01/18 06:02:22;;;;;;;;;9.80;9.00;;;;;-0.31;84.10;97781.25;5094941;28;8822;-57
2024/01/18 06:04:49;;;;;;;;;10.00;9.20;;;;;-0.32;83.81;97766.50;5095450;28;8826;-57
2024/01/18 06:07:17;;;;;;;;;13.00;13.00;;;;;-0.32;84.10;97776.16;5095883;28;8918;-57
2024/01/18 06:09:45;;;;;;;;;16.80;14.20;;;;;-0.33;84.45;97782.31;5096001;28;8826;-57
2024/01/18 06:12:13;;;;;;;;;12.00;11.20;;;;;-0.33;84.27;97779.72;5095748;28;8826;-56
2024/01/18 06:14:40;;;;;;;;;15.80;14.40;;;;;-0.34;83.81;97776.25;5095491;28;8876;-56
2024/01/18 06:17:11;;;;;;;;;18.60;16.20;;;;;-0.34;83.83;97780.63;5095474;28;8830;-58
2024/01/18 06:19:39;;;;;;;;;14.40;13.00;;;;;-0.36;84.31;97787.75;5095279;28;8821;-56
2024/01/18 06:22:07;;;;;;;;;11.20;9.60;;;;;-0.38;83.59;97789.66;5095325;28;8842;-58
2024/01/18 06:24:34;;;;;;;;;7.80;7.00;;;;;-0.40;84.30;97800.19;5094172;28;8817;-56
2024/01/18 06:27:02;;;;;;;;;9.20;8.20;;;;;-0.39;83.71;97819.34;5093455;28;8826;-56
2024/01/18 06:29:30;;;;;;;;;7.40;7.40;;;;;-0.42;84.18;97815.16;5095163;28;8918;-56
2024/01/18 06:31:58;;;;;;;;;14.20;12.40;;;;;-0.41;84.36;97818.59;5094129;28;8887;-56
2024/01/18 06:34:27;;;;;;;;;12.40;11.00;;;;;-0.43;84.10;97813.50;5093424;28;8853;-57
2024/01/18 06:36:55;;;;;;;;;10.80;10.80;;;;;-0.43;84.27;97815.25;5094364;28;8822;-56
2024/01/18 06:39:23;;;;;;;;;11.60;10.40;;;;;-0.45;84.24;97814.53;5093641;28;8822;-57
2024/01/18 06:41:51;;;;;;;;;9.80;9.80;;;;;-0.46;84.12;97820.72;5093606;28;8826;-56
2024/01/18 06:44:19;;;;;;;;;16.20;14.60;;;;;-0.48;84.55;97826.03;5093635;28;8826;-56
2024/01/18 06:46:46;;;;;;;;;17.20;14.20;;;;;-0.51;83.94;97825.41;5092793;28;8865;-56
2024/01/18 06:49:14;;;;;;;;;15.00;14.20;;;;;-0.55;84.38;97837.03;5094204;28;9500;-57
2024/01/18 06:51:42;;;;;;;;;15.00;13.00;;;;;-0.58;84.37;97842.44;5093609;28;8887;-57
2024/01/18 06:54:10;;;;;;;;;12.40;12.20;;;;;-0.59;84.56;97848.63;5093220;28;8964;-56
2024/01/18 06:56:38;;;;;;;;;8.80;6.80;;;;;-0.59;83.92;97851.22;5093909;28;8837;-59
2024/01/18 06:59:06;;;;;;;;;11.60;10.40;;;;;-0.59;84.34;97853.84;5094309;28;8842;-56
2024/01/18 07:01:34;;;;;;;;;15.40;13.00;;;;;-0.58;84.29;97865.97;5093794;28;9487;-58
2024/01/18 07:04:02;;;;;;;;;18.00;17.40;;;;;-0.60;84.55;97873.09;5093672;28;8814;-55
2024/01/18 07:06:30;;;;;;;;;15.00;12.80;;;;;-0.59;83.90;97879.97;5093698;28;8830;-56
2024/01/18 07:08:57;;;;;;;;;11.80;10.80;;;;;-0.59;84.27;97877.38;5094251;28;8927;-56
2024/01/18 07:11:25;;;;;;;;;17.40;14.80;;;;;-0.60;84.41;97870.47;5094413;28;8830;-56
2024/01/18 07:13:53;;;;;;;;;16.60;16.60;;;;;-0.61;84.07;97881.88;5094031;28;8838;-58
2024/01/18 07:16:20;;;;;;;;;13.00;12.20;;;;;-0.62;84.35;97888.03;5094297;28;8842;-57
2024/01/18 07:18:48;;;;;;;;;13.60;13.60;;;;;-0.62;84.25;97882.81;5093928;28;8967;-56
2024/01/18 07:21:16;;;;;;;;;15.80;15.00;;;;;-0.63;83.82;97884.56;5093027;28;8864;-58
2024/01/18 07:23:44;;;;;;;;;13.40;12.80;;;;;-0.64;84.40;97892.50;5092026;28;8825;-58
2024/01/18 07:26:12;;;;;;;;;11.20;11.20;;;;;-0.66;84.24;97903.09;5092632;28;8837;-56
2024/01/18 07:28:40;;;;;;;;;13.80;11.80;;;;;-0.68;84.71;97906.72;5092407;28;8837;-58
2024/01/18 07:31:08;;;;;;;;;12.00;11.20;;;;;-0.67;83.89;97903.19;5091343;28;8838;-58
2024/01/18 07:33:37;;;;;;;;;10.00;9.80;;;;;-0.69;84.62;97905.88;5093202;28;8848;-58
2024/01/18 07:36:06;;;;;;;;;6.60;6.00;;;;;-0.69;84.39;97905.88;5097408;28;8842;-59
2024/01/18 07:38:35;;;;;;;;;5.60;3.80;;;;;-0.71;84.83;97906.94;5097011;28;9531;-58
2024/01/18 07:41:02;;;;;;;;;5.20;5.20;;;;;-0.73;84.92;97914.03;5092971;28;8918;-56
2024/01/18 07:43:30;;;;;;;;;9.00;9.00;;;;;-0.78;84.65;97921.38;5092668;28;8908;-58
2024/01/18 07:45:58;;;;;;;;;15.60;13.40;;;;;-0.83;84.66;97920.81;5094470;28;8964;-57
2024/01/18 07:48:26;;;;;;;;;8.20;6.60;;;;;-0.89;84.49;97916.00;5096767;28;9510;-57
2024/01/18 07:50:54;;;;;;;;;12.20;10.40;;;;;-0.96;84.98;97928.63;5096814;28;8838;-56
2024/01/18 07:53:23;;;;;;;;;11.20;9.60;;;;;-1.03;84.50;97922.16;5096552;28;8822;-58
2024/01/18 07:55:50;;;;;;;;;11.20;10.00;;;;;-1.13;84.64;97921.06;5092950;28;8852;-56
2024/01/18 07:58:18;;;;;;;;;8.00;7.60;;;;;-1.23;85.13;97927.81;5098646;28;8849;-56
2024/01/18 08:00:46;;;;;;;;;7.00;6.00;;;;;-1.33;85.31;97931.13;5098306;28;8821;-58
2024/01/18 08:03:14;;;;;;;;;10.60;10.00;;;;;-1.43;84.51;97927.44;5097284;28;8922;-58
2024/01/18 08:05:42;;;;;;;;;9.60;9.60;;;;;-1.52;84.96;97930.63;5097404;28;8814;-59
2024/01/18 08:08:10;;;;;;;;;17.20;16.80;;;;;-1.61;85.48;97931.22;5096845;28;8826;-59
2024/01/18 08:10:37;;;;;;;;;7.00;7.00;;;;;-1.71;85.38;97932.72;5092473;28;8846;-57
2024/01/18 08:13:06;;;;;;;;;8.00;6.60;;;;;-1.80;85.63;97947.19;5096311;28;8825;-56
2024/01/18 08:15:34;;;;;;;;;12.60;12.60;;;;;-1.87;85.56;97958.09;5097057;28;8814;-56
2024/01/18 08:18:02;;;;;;;;;10.20;10.20;;;;;-1.95;85.68;97957.72;5097937;28;8843;-59
2024/01/18 08:20:30;;;;;;;;;8.80;7.60;;;;;-2.02;85.63;97965.09;5091645;28;8816;-58
2024/01/18 08:22:58;;;;;;;;;3.40;0.80;;;;;-2.07;85.78;97971.50;5097298;28;8850;-56
2024/01/18 08:25:26;;;;;;;;;11.00;10.40;;;;;-2.14;85.73;97975.44;5097553;28;8854;-56
2024/01/18 08:27:56;;;;;;;;;12.20;12.00;;;;;-2.20;85.91;97974.00;5096875;28;8826;-58
2024/01/18 08:30:25;;;;;;;;;15.40;13.40;;;;;-2.25;85.74;97972.63;5093521;28;8808;-57
2024/01/18 08:32:53;;;;;;;;;11.80;11.80;;;;;-2.30;86.26;97985.94;5100988;28;9502;-59
2024/01/18 08:35:22;;;;;;;;;10.80;9.60;;;;;-2.33;85.98;97993.09;5099479;28;8840;-57
2024/01/18 08:37:52;;;;;;;;;10.20;7.80;;;;;-2.36;86.57;98007.13;5103937;28;8901;-57
2024/01/18 08:40:21;;;;;;;;;15.20;12.80;;;;;-2.38;86.32;98013.34;5103043;28;9604;-58
2024/01/18 08:42:49;;;;;;;;;13.60;13.60;;;;;-2.39;86.43;98020.34;5097642;28;9521;-57
2024/01/18 08:45:18;;;;;;;;;23.80;23.20;;;;;-2.36;86.01;98027.16;5097950;28;8962;-57
2024/01/18 08:47:46;;;;;;;;;18.80;18.60;;;;;-2.33;86.40;98022.59;5097910;28;8839;-56
2024/01/18 08:50:15;;;;;;;;;10.60;9.80;;;;;-2.28;86.44;98032.75;5097934;28;8827;-56
2024/01/18 08:52:42;;;;;;;;;16.20;14.60;;;;;-2.25;85.92;98035.16;5097884;28;8871;-58
2024/01/18 08:55:10;;;;;;;;;13.20;12.40;;;;;-2.22;86.55;98032.34;5097460;28;8840;-57
2024/01/18 08:57:38;;;;;;;;;22.60;17.20;;;;;-2.17;86.22;98035.53;5096639;28;8843;-57
2024/01/18 09:00:06;;;;;;;;;16.00;15.00;;;;;-2.14;85.70;98033.59;5097464;28;8832;-58
2024/01/18 09:02:34;;;;;;;;;11.00;10.40;;;;;-2.07;86.06;98034.91;5097198;28;8820;-57
2024/01/18 09:05:02;;;;;;;;;14.00;12.80;;;;;-2.01;85.66;98033.69;5096164;28;8912;-57
2024/01/18 09:07:30;;;;;;;;;20.20;18.00;;;;;-1.94;85.87;98035.84;5095789;28;8842;-56
2024/01/18 09:09:58;;;;;;;;;14.40;13.80;;;;;-1.86;85.76;98040.59;5096223;28;8824;-58
2024/01/18 09:12:27;;;;;;;;;14.40;13.80;;;;;-1.80;85.74;98038.47;5096341;28;8823;-57
2024/01/18 09:14:55;;;;;;;;;13.20;13.20;;;;;-1.72;85.85;98043.19;5096706;28;9575;-57
2024/01/18 09:17:23;;;;;;;;;16.80;14.20;;;;;-1.69;85.20;98045.59;5096603;28;8984;-56
2024/01/18 09:19:51;;;;;;;;;10.80;10.00;;;;;-1.66;85.12;98061.09;5096381;28;9480;-57
2024/01/18 09:22:19;;;;;;;;;13.40;11.40;;;;;-1.64;84.62;98059.22;5095902;28;8842;-59
2024/01/18 09:24:47;;;;;;;;;6.40;1.40;;;;;-1.63;85.27;98064.34;5096625;28;9503;-56
2024/01/18 09:27:15;;;;;;;;;13.00;13.00;;;;;-1.56;85.99;98070.03;5096643;28;8875;-59
2024/01/18 09:29:43;;;;;;;;;13.20;12.80;;;;;-1.50;85.01;98067.03;5095247;28;8845;-58
2024/01/18 09:32:11;;;;;;;;;9.80;9.20;;;;;-1.43;84.76;98074.41;5093974;28;8833;-57
2024/01/18 09:34:40;;;;;;;;;18.00;16.00;;;;;-1.35;85.09;98072.16;5095083;28;8837;-59
2024/01/18 09:37:08;;;;;;;;;15.60;14.80;;;;;-1.27;84.49;98082.09;5095534;28;8846;-60
2024/01/18 09:39:36;;;;;;;;;10.40;9.40;;;;;-1.20;84.16;98083.41;5094795;28;8834;-59
2024/01/18 09:42:06;;;;;;;;;12.20;8.40;;;;;-1.12;84.67;98087.22;5095253;28;8984;-59
2024/01/18 09:44:37;;;;;;;;;12.00;12.00;;;;;-1.03;84.45;98088.41;5095081;28;8846;-57
2024/01/18 09:47:05;;;;;;;;;11.20;10.80;;;;;-0.95;84.29;98091.38;5094518;28;8850;-59
2024/01/18 09:49:33;;;;;;;;;19.00;18.00;;;;;-0.87;84.29;98092.56;5094018;28;8829;-59
2024/01/18 09:52:01;;;;;;;;;15.80;15.80;;;;;-0.79;83.58;98103.34;5095484;28;8877;-59
2024/01/18 09:54:30;;;;;;;;;14.20;13.80;;;;;-0.72;84.36;98109.03;5094431;28;8873;-59
2024/01/18 09:56:58;;;;;;;;;18.20;16.40;;;;;-0.62;84.18;98110.94;5095619;28;8938;-58
2024/01/18 09:59:26;;;;;;;;;9.80;9.80;;;;;-0.52;83.47;98112.06;5095440;28;8911;-59
2024/01/18 10:01:54;;;;;;;;;15.80;15.40;;;;;-0.42;84.06;98109.66;5095613;28;8814;-59
2024/01/18 10:04:22;;;;;;;;;18.60;16.80;;;;;-0.31;83.77;98115.03;5094778;28;8834;-59
2024/01/18 10:06:50;;;;;;;;;21.20;21.00;;;;;-0.19;83.04;98130.75;5093953;28;8834;-59
2024/01/18 10:09:19;;;;;;;;;13.80;12.00;;;;;-0.06;83.24;98127.22;5093458;28;8841;-59
2024/01/18 10:11:46;;;;;;;;;14.20;12.60;;;;;0.10;83.08;98130.47;5095631;28;8907;-58
2024/01/18 10:14:14;;;;;;;;;17.60;17.00;;;;;0.23;83.31;98125.28;5096046;28;8930;-58
2024/01/18 10:16:43;;;;;;;;;12.20;10.20;;;;;0.38;83.21;98122.47;5095510;28;8884;-59
2024/01/18 10:19:14;;;;;;;;;17.20;16.20;;;;;0.56;82.58;98139.56;5095070;28;8847;-59
2024/01/18 10:21:43;;;;;;;;;12.80;10.60;;;;;0.81;82.28;98141.28;5094854;28;8841;-59
2024/01/18 10:24:12;;;;;;;;;17.60;15.60;;;;;1.06;82.61;98149.94;5095419;28;9503;-57
2024/01/18 10:26:40;;;;;;;;;10.40;6.80;;;;;1.42;82.89;98149.97;5095700;28;8826;-57
2024/01/18 10:29:09;;;;;;;;;16.40;16.20;;;;;1.98;82.26;98149.28;5095685;28;8836;-57
2024/01/18 10:31:39;;;;;;;;;16.40;14.60;;;;;2.82;81.11;98137.56;5094799;28;8834;-58
2024/01/18 10:34:07;;;;;;;;;16.00;16.00;;;;;3.97;78.98;98135.22;5093325;28;8838;-59
2024/01/18 10:36:35;;;;;;;;;15.80;15.20;;;;;5.26;76.78;98131.97;5094511;28;8822;-56
2024/01/18 10:39:03;;;;;;;;;20.00;19.40;;;;;5.99;75.04;98138.53;5094723;28;9733;-58
2024/01/18 10:41:32;;;;;;;;;15.60;14.00;;;;;6.13;74.67;98153.13;5092952;28;8919;-58
2024/01/18 10:44:00;;;;;;;;;19.80;19.00;;;;;6.01;75.11;98156.91;5091819;28;8846;-57
2024/01/18 10:46:28;;;;;;;;;21.80;19.80;;;;;5.88;75.31;98154.53;5091623;28;8923;-56
2024/01/18 10:48:56;;;;;;;;;12.20;12.20;;;;;5.44;76.13;98154.09;5092281;28;8817;-59
2024/01/18 10:51:24;;;;;;;;;19.00;19.00;;;;;4.98;77.50;98159.06;5093504;28;8826;-56
2024/01/18 10:53:52;;;;;;;;;16.40;12.60;;;;;5.07;77.60;98168.81;5092107;28;8830;-58
2024/01/18 10:56:23;;;;;;;;;21.40;21.40;;;;;5.32;77.37;98157.81;5093687;28;8830;-56
2024/01/18 10:58:53;;;;;;;;;21.60;17.60;;;;;5.42;77.02;98156.03;5094514;28;8822;-56
2024/01/18 11:01:22;;;;;;;;;15.60;15.20;;;;;5.35;76.99;98154.91;5092627;28;8856;-57
2024/01/18 11:03:50;;;;;;;;;18.40;16.80;;;;;5.31;76.70;98164.06;5093598;28;8825;-56
2024/01/18 11:06:18;;;;;;;;;20.20;17.20;;;;;5.18;77.36;98171.38;5093202;28;8822;-57
2024/01/18 11:08:46;;;;;;;;;18.80;17.60;;;;;5.16;77.02;98189.16;5092987;28;8826;-58
2024/01/18 11:11:14;;;;;;;;;18.00;18.00;;;;;5.70;76.72;98177.25;5093701;28;8838;-58
2024/01/18 11:13:42;;;;;;;;;20.40;18.80;;;;;6.14;76.44;98179.44;5093360;28;8829;-56
2024/01/18 11:16:10;;;;;;;;;18.00;17.40;;;;;6.37;76.49;98182.66;5092868;28;8988;-59
2024/01/18 11:18:38;;;;;;;;;20.60;19.60;;;;;6.48;75.56;98186.00;5093720;28;8944;-58
2024/01/18 11:21:08;;;;;;;;;10.60;9.40;;;;;6.74;75.95;98180.97;5094107;28;8830;-60
2024/01/18 11:23:37;;;;;;;;;22.00;20.20;;;;;6.94;75.87;98188.72;5094293;28;8874;-57
2024/01/18 11:26:05;;;;;;;;;21.60;21.40;;;;;7.34;74.68;98186.63;5094815;28;8825;-58
2024/01/18 11:28:33;;;;;;;;;17.60;14.60;;;;;7.80;73.72;98176.81;5094942;28;8839;-57
2024/01/18 11:31:01;;;;;;;;;26.80;22.80;;;;;8.21;72.81;98180.78;5095601;28;8842;-59
2024/01/18 11:33:30;;;;;;;;;25.60;22.20;;;;;8.67;71.72;98169.91;5095111;28;8822;-57
2024/01/18 11:35:58;;;;;;;;;20.80;19.20;;;;;9.27;70.41;98185.75;5094828;28;8927;-58